createdAt,value
2023-03-16T00:02:25.892Z,1.34
2023-03-16T00:04:52.263Z,1.46
2023-03-16T00:07:20.161Z,1.54
2023-03-16T00:09:46.513Z,1.39
2023-03-16T00:12:13.059Z,1.31
2023-03-16T00:14:39.441Z,1.45
2023-03-16T00:17:05.833Z,1.24
2023-03-16T00:19:32.220Z,1.58
2023-03-16T00:21:58.592Z,1.65
2023-03-16T00:24:24.955Z,1.72
2023-03-16T00:26:51.355Z,1.76
2023-03-16T00:29:17.699Z,2.12
2023-03-16T00:31:44.296Z,2.17
2023-03-16T00:34:10.726Z,1.85
2023-03-16T00:36:37.094Z,2.11
2023-03-16T00:39:03.444Z,2.27
2023-03-16T00:41:29.774Z,2.15
2023-03-16T00:43:56.146Z,2.22
2023-03-16T00:46:22.556Z,2.55
2023-03-16T00:48:48.982Z,2.58
2023-03-16T00:51:15.364Z,2.26
2023-03-16T00:53:41.793Z,2.15
2023-03-16T00:56:08.219Z,1.88
2023-03-16T00:58:34.622Z,2.07
2023-03-16T01:01:01.057Z,2.23
2023-03-16T01:03:27.482Z,2.25
2023-03-16T01:05:53.911Z,2.02
2023-03-16T01:08:20.310Z,2.06
2023-03-16T01:10:46.662Z,1.83
2023-03-16T01:13:13.073Z,1.88
2023-03-16T01:15:39.439Z,1.88
2023-03-16T01:18:05.855Z,1.68
2023-03-16T01:20:32.240Z,1.65
2023-03-16T01:22:58.643Z,1.58
2023-03-16T01:25:25.035Z,1.73
2023-03-16T01:27:51.394Z,1.55
2023-03-16T01:30:17.813Z,1.47
2023-03-16T01:32:44.236Z,1.64
2023-03-16T01:35:10.644Z,1.71
2023-03-16T01:37:37.026Z,1.54
2023-03-16T01:40:03.486Z,1.66
2023-03-16T01:42:29.874Z,1.53
2023-03-16T01:44:56.268Z,1.59
2023-03-16T01:47:22.638Z,1.43
2023-03-16T01:49:49.014Z,1.39
2023-03-16T01:52:15.377Z,1.27
2023-03-16T01:54:41.715Z,1.41
2023-03-16T01:57:08.111Z,1.46
2023-03-16T01:59:34.510Z,1.57
2023-03-16T02:02:00.857Z,1.57
2023-03-16T02:04:28.350Z,1.55
2023-03-16T02:06:54.971Z,1.64
2023-03-16T02:09:21.362Z,1.51
2023-03-16T02:11:47.727Z,1.44
2023-03-16T02:14:14.071Z,1.49
2023-03-16T02:16:40.582Z,1.50
2023-03-16T02:19:06.962Z,1.77
2023-03-16T02:21:33.360Z,1.69
2023-03-16T02:23:59.733Z,1.66
2023-03-16T02:26:26.117Z,1.59
2023-03-16T02:28:52.467Z,1.54
2023-03-16T02:31:18.887Z,1.52
2023-03-16T02:33:45.319Z,1.53
2023-03-16T02:36:11.666Z,1.75
2023-03-16T02:38:37.998Z,3.70
2023-03-16T02:41:04.340Z,1.69
2023-03-16T02:43:30.677Z,1.54
2023-03-16T02:45:57.025Z,1.66
2023-03-16T02:48:23.410Z,1.79
2023-03-16T02:50:49.825Z,1.47
2023-03-16T02:53:16.218Z,1.60
2023-03-16T02:55:42.569Z,1.50
2023-03-16T02:58:08.912Z,1.56
2023-03-16T03:00:37.180Z,1.61
2023-03-16T03:03:03.636Z,1.63
2023-03-16T03:05:30.057Z,1.54
2023-03-16T03:07:56.408Z,1.62
2023-03-16T03:10:22.801Z,1.59
2023-03-16T03:12:49.181Z,1.72
2023-03-16T03:15:15.567Z,1.65
2023-03-16T03:17:41.953Z,1.62
2023-03-16T03:20:08.369Z,1.73
2023-03-16T03:22:34.761Z,1.62
2023-03-16T03:25:01.147Z,1.60
2023-03-16T03:27:27.624Z,1.60
2023-03-16T03:29:54.027Z,1.81
2023-03-16T03:32:20.426Z,1.64
2023-03-16T03:34:46.831Z,1.68
2023-03-16T03:37:13.224Z,1.73
2023-03-16T03:39:39.577Z,1.66
2023-03-16T03:42:05.908Z,1.86
2023-03-16T03:44:32.283Z,1.82
2023-03-16T03:46:58.673Z,1.93
2023-03-16T03:49:25.025Z,1.96
2023-03-16T03:51:51.393Z,1.77
2023-03-16T03:54:17.779Z,1.77
2023-03-16T03:56:44.173Z,1.83
2023-03-16T03:59:10.569Z,1.68
2023-03-16T04:01:36.916Z,1.79
2023-03-16T04:04:03.302Z,1.86
2023-03-16T04:06:29.696Z,1.68
2023-03-16T04:08:56.093Z,1.68
2023-03-16T04:11:22.468Z,1.75
2023-03-16T04:13:48.821Z,1.98
2023-03-16T04:16:15.172Z,1.92
2023-03-16T04:18:41.574Z,1.79
2023-03-16T04:21:07.937Z,1.88
2023-03-16T04:23:34.328Z,2.02
2023-03-16T04:26:00.743Z,1.96
2023-03-16T04:28:27.104Z,1.82
2023-03-16T04:30:53.462Z,1.89
2023-03-16T04:33:19.862Z,2.13
2023-03-16T04:35:46.334Z,2.18
2023-03-16T04:38:12.758Z,2.04
2023-03-16T04:40:39.145Z,2.13
2023-03-16T04:43:05.588Z,2.04
2023-03-16T04:45:31.995Z,2.02
2023-03-16T04:47:58.341Z,2.34
2023-03-16T04:50:24.867Z,2.24
2023-03-16T04:52:51.252Z,2.06
2023-03-16T04:55:17.615Z,1.90
2023-03-16T04:57:43.984Z,2.25
2023-03-16T05:00:10.356Z,2.17
2023-03-16T05:02:36.712Z,2.36
2023-03-16T05:05:03.075Z,2.28
2023-03-16T05:07:29.425Z,2.06
2023-03-16T05:09:55.771Z,2.21
2023-03-16T05:12:22.146Z,2.12
2023-03-16T05:14:48.506Z,2.18
2023-03-16T05:17:14.932Z,2.17
2023-03-16T05:19:41.323Z,2.26
2023-03-16T05:22:07.663Z,2.28
2023-03-16T05:24:34.049Z,2.28
2023-03-16T05:27:00.426Z,2.48
2023-03-16T05:29:26.819Z,2.41
2023-03-16T05:31:53.226Z,2.43
2023-03-16T05:34:19.620Z,2.35
2023-03-16T05:36:45.979Z,2.41
2023-03-16T05:39:12.362Z,2.65
2023-03-16T05:41:38.734Z,2.38
2023-03-16T05:44:05.077Z,2.27
2023-03-16T05:46:31.512Z,2.64
2023-03-16T05:48:57.900Z,2.53
2023-03-16T05:51:24.274Z,2.47
2023-03-16T05:53:50.629Z,2.52
2023-03-16T05:56:17.011Z,3.05
2023-03-16T05:58:43.404Z,3.38
2023-03-16T06:01:09.765Z,2.78
2023-03-16T06:03:36.143Z,2.72
2023-03-16T06:06:02.552Z,2.37
2023-03-16T06:08:28.903Z,2.86
2023-03-16T06:10:55.453Z,2.92
2023-03-16T06:13:21.808Z,2.72
2023-03-16T06:15:48.235Z,2.86
2023-03-16T06:18:14.655Z,2.71
2023-03-16T06:20:41.100Z,2.69
2023-03-16T06:23:07.553Z,2.67
2023-03-16T06:25:33.927Z,2.68
2023-03-16T06:28:00.284Z,2.49
2023-03-16T06:30:26.967Z,2.56
2023-03-16T06:32:53.509Z,2.49
2023-03-16T06:35:19.931Z,2.66
2023-03-16T06:37:46.294Z,2.91
2023-03-16T06:40:12.653Z,3.01
2023-03-16T06:42:38.997Z,2.74
2023-03-16T06:45:05.385Z,2.95
2023-03-16T06:47:31.786Z,2.75
2023-03-16T06:49:58.127Z,3.15
2023-03-16T06:52:24.459Z,3.15
2023-03-16T06:54:51.018Z,2.90
2023-03-16T06:57:17.386Z,3.17
2023-03-16T06:59:43.765Z,3.16
2023-03-16T07:02:10.117Z,3.07
2023-03-16T07:04:36.592Z,3.07
2023-03-16T07:07:03.055Z,3.09
2023-03-16T07:09:29.406Z,3.31
2023-03-16T07:11:55.785Z,3.33
2023-03-16T07:14:22.177Z,3.38
2023-03-16T07:16:48.578Z,3.36
2023-03-16T07:19:14.969Z,3.42
2023-03-16T07:21:41.316Z,3.40
2023-03-16T07:24:07.654Z,3.58
2023-03-16T07:26:34.038Z,3.60
2023-03-16T07:29:00.404Z,3.36
2023-03-16T07:31:26.816Z,3.43
2023-03-16T07:33:53.193Z,4.89
2023-03-16T07:36:19.667Z,4.42
2023-03-16T07:38:46.099Z,3.67
2023-03-16T07:41:12.460Z,3.49
2023-03-16T07:43:38.844Z,3.59
2023-03-16T07:46:05.411Z,3.52
2023-03-16T07:48:31.841Z,3.80
2023-03-16T07:50:58.243Z,3.66
2023-03-16T07:53:24.647Z,3.59
2023-03-16T07:55:51.000Z,3.76
2023-03-16T07:58:17.422Z,4.21
2023-03-16T08:00:43.812Z,3.69
2023-03-16T08:03:11.668Z,3.54
2023-03-16T08:05:38.123Z,3.67
2023-03-16T08:08:04.504Z,3.99
2023-03-16T08:10:31.477Z,3.85
2023-03-16T08:12:58.191Z,3.75
2023-03-16T08:15:24.575Z,3.80
2023-03-16T08:17:50.944Z,3.65
2023-03-16T08:20:17.328Z,3.79
2023-03-16T08:22:43.714Z,3.45
2023-03-16T08:25:10.103Z,3.98
2023-03-16T08:27:36.440Z,3.70
2023-03-16T08:30:02.829Z,3.51
2023-03-16T08:32:29.259Z,3.72
2023-03-16T08:34:55.657Z,3.62
2023-03-16T08:37:24.780Z,3.31
2023-03-16T08:39:51.131Z,3.39
2023-03-16T08:42:17.464Z,3.33
2023-03-16T08:44:43.867Z,3.23
2023-03-16T08:47:10.232Z,3.13
2023-03-16T08:49:36.577Z,3.23
2023-03-16T08:52:02.929Z,3.28
2023-03-16T08:54:29.273Z,3.59
2023-03-16T08:56:55.625Z,3.25
2023-03-16T08:59:29.803Z,3.31
2023-03-16T09:01:56.799Z,3.25
2023-03-16T09:04:23.363Z,3.34
2023-03-16T09:07:02.359Z,3.06
2023-03-16T09:09:34.112Z,3.02
2023-03-16T09:12:00.509Z,2.51
2023-03-16T09:14:26.862Z,2.43
2023-03-16T09:16:53.251Z,2.64
2023-03-16T09:19:19.649Z,2.79
2023-03-16T09:21:47.377Z,2.94
2023-03-16T09:24:13.895Z,2.76
2023-03-16T09:26:40.574Z,2.71
2023-03-16T09:29:06.992Z,2.45
2023-03-16T09:31:33.429Z,2.20
2023-03-16T09:33:59.829Z,2.05
2023-03-16T09:36:26.180Z,2.43
2023-03-16T09:38:52.544Z,2.39
2023-03-16T09:41:18.907Z,2.31
2023-03-16T09:43:45.261Z,2.15
2023-03-16T09:46:11.686Z,2.14
2023-03-16T09:48:38.138Z,2.08
2023-03-16T09:51:04.584Z,2.08
2023-03-16T09:53:31.019Z,2.14
2023-03-16T09:55:57.386Z,2.24
2023-03-16T09:58:23.733Z,2.31
2023-03-16T10:00:50.219Z,2.02
2023-03-16T10:03:16.685Z,2.17
2023-03-16T10:05:43.082Z,2.08
2023-03-16T10:08:09.483Z,1.72
2023-03-16T10:10:35.850Z,1.73
2023-03-16T10:13:02.265Z,1.93
2023-03-16T10:15:28.671Z,1.87
2023-03-16T10:17:55.079Z,2.13
2023-03-16T10:20:21.491Z,2.13
2023-03-16T10:22:47.892Z,2.10
2023-03-16T10:25:14.259Z,1.68
2023-03-16T10:27:40.644Z,2.27
2023-03-16T10:30:07.022Z,2.09
2023-03-16T10:32:33.390Z,2.12
2023-03-16T10:34:59.796Z,2.26
2023-03-16T10:37:26.168Z,1.98
2023-03-16T10:39:52.519Z,2.35
2023-03-16T10:42:18.861Z,1.93
2023-03-16T10:44:45.242Z,1.98
2023-03-16T10:47:11.775Z,2.03
2023-03-16T10:49:38.209Z,2.30
2023-03-16T10:52:04.572Z,2.41
2023-03-16T10:54:30.934Z,2.53
2023-03-16T10:56:57.322Z,2.65
2023-03-16T10:59:23.709Z,2.73
2023-03-16T11:01:50.170Z,2.76
2023-03-16T11:04:16.656Z,2.74
2023-03-16T11:06:43.052Z,3.42
2023-03-16T11:09:09.417Z,3.74
2023-03-16T11:11:35.765Z,3.80
2023-03-16T11:14:02.106Z,5.18
2023-03-16T11:16:28.477Z,4.82
2023-03-16T11:18:54.872Z,6.20
2023-03-16T11:21:21.253Z,6.09
2023-03-16T11:23:47.606Z,3.77
2023-03-16T11:26:13.976Z,2.98
2023-03-16T11:28:40.331Z,3.19
2023-03-16T11:31:06.739Z,3.30
2023-03-16T11:33:33.101Z,3.07
2023-03-16T11:35:59.808Z,2.90
2023-03-16T11:38:26.249Z,2.80
2023-03-16T11:40:52.637Z,2.97
2023-03-16T11:43:19.049Z,3.08
2023-03-16T11:45:45.424Z,2.95
2023-03-16T11:48:11.773Z,3.16
2023-03-16T11:50:38.119Z,3.24
2023-03-16T11:53:04.505Z,3.29
2023-03-16T11:55:31.092Z,2.95
2023-03-16T11:57:57.521Z,3.14
2023-03-16T12:00:23.886Z,3.39
2023-03-16T12:02:50.423Z,3.37
2023-03-16T12:05:16.891Z,3.98
2023-03-16T12:07:43.236Z,27.58
2023-03-16T12:10:09.625Z,3.82
2023-03-16T12:12:35.987Z,4.61
2023-03-16T12:15:02.379Z,3.44
2023-03-16T12:17:28.771Z,3.55
2023-03-16T12:19:55.170Z,3.43
2023-03-16T12:22:21.525Z,3.44
2023-03-16T12:24:47.930Z,3.31
2023-03-16T12:27:14.363Z,3.53
2023-03-16T12:29:40.724Z,3.39
2023-03-16T12:32:07.104Z,3.37
2023-03-16T12:34:33.505Z,3.44
2023-03-16T12:36:59.861Z,3.26
2023-03-16T12:39:26.225Z,3.51
2023-03-16T12:41:52.615Z,3.09
2023-03-16T12:44:18.986Z,3.27
2023-03-16T12:46:47.761Z,3.41
2023-03-16T12:49:14.283Z,3.27
2023-03-16T12:51:40.679Z,3.25
2023-03-16T12:54:07.033Z,3.05
2023-03-16T12:56:33.383Z,3.34
2023-03-16T12:58:59.740Z,3.49
2023-03-16T13:01:26.174Z,3.16
2023-03-16T13:03:52.606Z,3.12
2023-03-16T13:06:18.998Z,3.40
2023-03-16T13:08:45.357Z,3.48
2023-03-16T13:11:11.705Z,3.19
2023-03-16T13:13:38.092Z,3.38
2023-03-16T13:16:04.484Z,3.41
2023-03-16T13:18:30.861Z,3.28
2023-03-16T13:20:57.247Z,3.11
2023-03-16T13:23:23.786Z,3.21
2023-03-16T13:25:50.145Z,3.01
2023-03-16T13:28:16.492Z,3.01
2023-03-16T13:30:42.859Z,2.82
2023-03-16T13:33:09.258Z,2.90
2023-03-16T13:35:38.111Z,3.03
2023-03-16T13:38:05.454Z,3.15
2023-03-16T13:40:31.831Z,3.02
2023-03-16T13:42:58.225Z,2.98
2023-03-16T13:45:24.582Z,2.90
2023-03-16T13:47:50.928Z,3.39
2023-03-16T13:50:17.314Z,3.00
2023-03-16T13:52:43.663Z,3.65
2023-03-16T13:55:10.053Z,3.66
2023-03-16T13:57:36.435Z,3.12
2023-03-16T14:00:02.856Z,3.07
2023-03-16T14:02:29.343Z,2.86
2023-03-16T14:04:55.789Z,2.80
2023-03-16T14:07:22.143Z,2.93
2023-03-16T14:09:48.533Z,2.90
2023-03-16T14:12:14.969Z,2.78
2023-03-16T14:14:41.586Z,2.58
2023-03-16T14:17:07.982Z,2.68
2023-03-16T14:19:34.327Z,3.13
2023-03-16T14:22:00.717Z,2.82
2023-03-16T14:24:27.108Z,2.82
2023-03-16T14:26:53.502Z,2.67
2023-03-16T14:29:19.873Z,2.83
2023-03-16T14:31:46.248Z,2.81
2023-03-16T14:34:12.608Z,2.80
2023-03-16T14:36:39.061Z,2.81
2023-03-16T14:39:05.456Z,3.01
2023-03-16T14:41:31.826Z,2.87
2023-03-16T14:43:58.207Z,2.75
2023-03-16T14:46:24.591Z,2.74
2023-03-16T14:48:50.944Z,2.82
2023-03-16T14:51:17.301Z,2.91
2023-03-16T14:53:43.639Z,2.56
2023-03-16T14:56:09.990Z,2.53
2023-03-16T14:58:36.327Z,2.32
2023-03-16T15:01:02.719Z,2.47
2023-03-16T15:03:29.109Z,2.41
2023-03-16T15:05:55.563Z,2.55
2023-03-16T15:08:21.948Z,2.93
2023-03-16T15:10:48.309Z,2.61
2023-03-16T15:13:14.657Z,2.53
2023-03-16T15:15:41.054Z,2.62
2023-03-16T15:18:07.458Z,2.09
2023-03-16T15:20:33.797Z,2.50
2023-03-16T15:23:00.178Z,2.44
2023-03-16T15:25:26.573Z,2.30
2023-03-16T15:27:52.924Z,1.94
2023-03-16T15:30:19.326Z,2.31
2023-03-16T15:32:45.702Z,2.02
2023-03-16T15:35:12.054Z,2.51
2023-03-16T15:37:38.397Z,2.31
2023-03-16T15:40:04.786Z,2.38
2023-03-16T15:42:31.147Z,2.35
2023-03-16T15:44:57.530Z,2.27
2023-03-16T15:47:23.933Z,2.16
2023-03-16T15:49:50.284Z,2.28
2023-03-16T15:52:16.673Z,2.51
2023-03-16T15:54:43.030Z,2.19
2023-03-16T15:57:09.380Z,2.21
2023-03-16T15:59:35.711Z,2.48
2023-03-16T16:02:02.061Z,2.97
2023-03-16T16:04:28.453Z,2.79
2023-03-16T16:06:54.828Z,2.31
2023-03-16T16:09:21.172Z,2.20
2023-03-16T16:11:47.569Z,2.25
2023-03-16T16:14:13.924Z,2.59
2023-03-16T16:16:40.313Z,2.76
2023-03-16T16:19:06.670Z,2.88
2023-03-16T16:21:33.050Z,3.25
2023-03-16T16:23:59.430Z,3.17
2023-03-16T16:26:27.900Z,3.75
2023-03-16T16:28:58.058Z,3.77
2023-03-16T16:31:24.478Z,3.87
2023-03-16T16:33:50.831Z,3.88
2023-03-16T16:36:17.232Z,3.64
2023-03-16T16:38:43.622Z,3.75
2023-03-16T16:41:09.985Z,3.79
2023-03-16T16:43:36.375Z,3.90
2023-03-16T16:46:02.801Z,3.92
2023-03-16T16:48:29.195Z,3.84
2023-03-16T16:50:55.534Z,3.60
2023-03-16T16:53:21.890Z,3.75
2023-03-16T16:55:48.270Z,3.75
2023-03-16T16:58:23.868Z,3.94
2023-03-16T17:00:51.183Z,4.60
2023-03-16T17:03:17.643Z,5.51
2023-03-16T17:05:44.003Z,4.54
2023-03-16T17:08:10.389Z,3.98
2023-03-16T17:10:36.742Z,4.72
2023-03-16T17:13:03.136Z,5.13
2023-03-16T17:15:29.634Z,5.78
2023-03-16T17:17:56.110Z,4.46
2023-03-16T17:20:22.460Z,3.75
2023-03-16T17:22:48.847Z,3.77
2023-03-16T17:25:15.213Z,3.84
2023-03-16T17:27:41.552Z,4.24
2023-03-16T17:30:07.905Z,3.73
2023-03-16T17:32:34.295Z,3.41
2023-03-16T17:35:00.689Z,3.18
2023-03-16T17:37:27.041Z,3.03
2023-03-16T17:39:54.587Z,3.13
2023-03-16T17:42:22.023Z,3.62
2023-03-16T17:44:48.382Z,3.43
2023-03-16T17:47:14.790Z,3.63
2023-03-16T17:49:41.216Z,3.35
2023-03-16T17:52:07.600Z,3.54
2023-03-16T17:54:34.008Z,3.72
2023-03-16T17:57:00.375Z,4.58
2023-03-16T17:59:26.775Z,5.17
2023-03-16T18:01:53.154Z,4.97
2023-03-16T18:04:19.503Z,4.41
2023-03-16T18:06:45.891Z,4.22
2023-03-16T18:09:12.235Z,3.97
2023-03-16T18:11:38.583Z,3.81
2023-03-16T18:14:04.954Z,3.76
2023-03-16T18:16:31.433Z,4.11
2023-03-16T18:18:57.915Z,3.98
2023-03-16T18:21:24.270Z,3.53
2023-03-16T18:23:50.674Z,3.51
2023-03-16T18:26:17.021Z,3.71
2023-03-16T18:28:43.397Z,4.10
2023-03-16T18:31:09.848Z,4.45
2023-03-16T18:33:36.310Z,4.20
2023-03-16T18:36:02.726Z,4.31
2023-03-16T18:38:29.129Z,4.40
2023-03-16T18:40:55.484Z,4.37
2023-03-16T18:43:21.820Z,4.35
2023-03-16T18:45:48.243Z,4.11
2023-03-16T18:48:14.616Z,4.08
2023-03-16T18:50:41.005Z,4.12
2023-03-16T18:53:07.350Z,4.61
2023-03-16T18:55:33.735Z,4.26
2023-03-16T18:58:00.140Z,4.84
2023-03-16T19:00:26.600Z,4.55
2023-03-16T19:02:53.039Z,4.29
2023-03-16T19:05:19.451Z,4.79
2023-03-16T19:07:45.918Z,5.02
2023-03-16T19:10:12.318Z,4.88
2023-03-16T19:12:38.680Z,4.92
2023-03-16T19:15:05.023Z,4.81
2023-03-16T19:17:31.451Z,4.96
2023-03-16T19:19:57.874Z,4.55
2023-03-16T19:22:24.269Z,4.75
2023-03-16T19:24:50.732Z,4.89
2023-03-16T19:27:17.157Z,4.91
2023-03-16T19:29:43.565Z,4.81
2023-03-16T19:32:10.032Z,5.29
2023-03-16T19:34:36.450Z,5.69
2023-03-16T19:37:02.867Z,10.84
2023-03-16T19:39:29.249Z,13.86
2023-03-16T19:41:55.627Z,11.76
2023-03-16T19:44:22.051Z,10.90
2023-03-16T19:46:48.426Z,8.66
2023-03-16T19:49:14.777Z,7.81
2023-03-16T19:51:41.124Z,6.71
2023-03-16T19:54:07.470Z,6.34
2023-03-16T19:56:33.880Z,8.38
2023-03-16T19:59:00.247Z,12.67
2023-03-16T20:01:26.659Z,11.34
2023-03-16T20:03:53.073Z,13.25
2023-03-16T20:06:19.465Z,10.49
2023-03-16T20:08:45.879Z,8.05
2023-03-16T20:11:12.225Z,6.37
2023-03-16T20:13:38.613Z,7.96
2023-03-16T20:16:05.022Z,9.57
2023-03-16T20:18:31.463Z,7.68
2023-03-16T20:20:57.868Z,7.04
2023-03-16T20:23:24.234Z,6.30
2023-03-16T20:25:50.628Z,6.87
2023-03-16T20:28:17.008Z,6.91
2023-03-16T20:30:43.374Z,6.92
2023-03-16T20:33:09.773Z,7.82
2023-03-16T20:35:36.239Z,7.85
2023-03-16T20:38:02.664Z,9.20
2023-03-16T20:40:29.072Z,8.77
2023-03-16T20:42:55.480Z,7.44
2023-03-16T20:45:21.865Z,7.40
2023-03-16T20:47:48.258Z,7.26
2023-03-16T20:50:14.617Z,6.59
2023-03-16T20:52:40.970Z,6.37
2023-03-16T20:55:07.354Z,5.83
2023-03-16T20:57:33.708Z,5.89
2023-03-16T21:00:00.119Z,5.80
2023-03-16T21:02:26.482Z,5.82
2023-03-16T21:04:52.842Z,6.92
2023-03-16T21:07:19.382Z,5.87
2023-03-16T21:09:50.225Z,5.53
2023-03-16T21:12:16.808Z,6.09
2023-03-16T21:14:43.156Z,6.75
2023-03-16T21:17:09.492Z,9.26
2023-03-16T21:19:35.848Z,8.54
2023-03-16T21:22:02.253Z,6.89
2023-03-16T21:24:28.615Z,6.85
2023-03-16T21:26:54.965Z,6.81
2023-03-16T21:29:21.398Z,7.02
2023-03-16T21:31:47.786Z,6.76
2023-03-16T21:34:14.171Z,6.43
2023-03-16T21:36:41.342Z,6.40
2023-03-16T21:39:09.096Z,6.42
2023-03-16T21:41:35.449Z,6.58
2023-03-16T21:44:01.817Z,6.67
2023-03-16T21:46:28.230Z,6.35
2023-03-16T21:48:54.729Z,6.71
2023-03-16T21:51:21.104Z,6.30
2023-03-16T21:53:47.475Z,7.03
2023-03-16T21:56:13.872Z,7.23
2023-03-16T21:58:40.266Z,7.21
2023-03-16T22:01:06.628Z,7.08
2023-03-16T22:03:49.464Z,7.76
2023-03-16T22:06:16.717Z,8.13
2023-03-16T22:08:43.136Z,7.76
2023-03-16T22:11:09.476Z,7.60
2023-03-16T22:13:35.864Z,6.93
2023-03-16T22:16:02.356Z,6.65
2023-03-16T22:18:28.823Z,6.65
2023-03-16T22:20:55.188Z,6.65
2023-03-16T22:23:21.562Z,6.56
2023-03-16T22:25:47.926Z,6.32
2023-03-16T22:28:14.269Z,6.02
2023-03-16T22:30:40.608Z,6.44
2023-03-16T22:33:06.980Z,6.18
2023-03-16T22:35:33.464Z,5.92
2023-03-16T22:37:59.824Z,6.24
2023-03-16T22:40:26.167Z,7.05
2023-03-16T22:42:52.570Z,7.44
2023-03-16T22:45:19.197Z,6.72
2023-03-16T22:47:45.594Z,6.33
2023-03-16T22:50:11.930Z,6.55
2023-03-16T22:52:38.313Z,5.78
2023-03-16T22:55:04.680Z,5.74
2023-03-16T22:57:31.063Z,5.65
2023-03-16T22:59:57.416Z,5.37
2023-03-16T23:02:23.809Z,5.46
2023-03-16T23:04:50.238Z,5.76
2023-03-16T23:07:16.605Z,6.13
2023-03-16T23:09:42.993Z,6.05
2023-03-16T23:12:09.388Z,5.70
2023-03-16T23:14:35.751Z,5.69
2023-03-16T23:17:02.149Z,5.80
2023-03-16T23:19:28.543Z,5.59
2023-03-16T23:21:54.901Z,5.97
2023-03-16T23:24:21.288Z,5.78
2023-03-16T23:26:47.649Z,5.28
2023-03-16T23:29:14.005Z,5.34
2023-03-16T23:31:40.369Z,5.48
2023-03-16T23:34:06.763Z,4.97
2023-03-16T23:36:33.107Z,5.36
2023-03-16T23:38:59.440Z,5.55
2023-03-16T23:41:25.806Z,5.45
2023-03-16T23:43:52.151Z,5.85
2023-03-16T23:46:18.610Z,5.55
2023-03-16T23:48:45.000Z,5.73
2023-03-16T23:51:11.339Z,5.41
2023-03-16T23:53:37.672Z,5.71
2023-03-16T23:56:04.019Z,5.57
2023-03-16T23:58:30.357Z,5.50
